sensor_id;sensor_type;location;lat;lon;timestamp;P1;durP1;ratioP1;P2;durP2;ratioP2
35893;SDS011;21994;48.204;16.516;2022-07-19T00:01:06;3.05;;;1.38;;
35893;SDS011;21994;48.204;16.516;2022-07-19T00:03:32;1.98;;;1.15;;
35893;SDS011;21994;48.204;16.516;2022-07-19T00:05:58;3.55;;;1.45;;
35893;SDS011;21994;48.204;16.516;2022-07-19T00:08:24;2.83;;;1.40;;
35893;SDS011;21994;48.204;16.516;2022-07-19T00:10:51;2.22;;;1.20;;
35893;SDS011;21994;48.204;16.516;2022-07-19T00:13:16;1.35;;;1.25;;
35893;SDS011;21994;48.204;16.516;2022-07-19T00:15:43;2.55;;;1.30;;
35893;SDS011;21994;48.204;16.516;2022-07-19T00:18:09;2.75;;;1.20;;
35893;SDS011;21994;48.204;16.516;2022-07-19T00:20:37;2.03;;;1.10;;
35893;SDS011;21994;48.204;16.516;2022-07-19T00:23:03;2.47;;;1.50;;
35893;SDS011;21994;48.204;16.516;2022-07-19T00:25:29;3.30;;;0.93;;
35893;SDS011;21994;48.204;16.516;2022-07-19T00:28:04;1.92;;;1.20;;
35893;SDS011;21994;48.204;16.516;2022-07-19T00:30:33;1.67;;;1.20;;
35893;SDS011;21994;48.204;16.516;2022-07-19T00:33:03;1.27;;;1.00;;
35893;SDS011;21994;48.204;16.516;2022-07-19T00:35:37;2.92;;;1.30;;
35893;SDS011;21994;48.204;16.516;2022-07-19T00:38:04;3.17;;;1.40;;
35893;SDS011;21994;48.204;16.516;2022-07-19T00:40:32;3.45;;;1.33;;
35893;SDS011;21994;48.204;16.516;2022-07-19T00:43:02;2.78;;;1.50;;
35893;SDS011;21994;48.204;16.516;2022-07-19T00:45:29;2.42;;;1.35;;
35893;SDS011;21994;48.204;16.516;2022-07-19T00:47:56;3.13;;;1.67;;
35893;SDS011;21994;48.204;16.516;2022-07-19T00:50:22;4.68;;;1.42;;
35893;SDS011;21994;48.204;16.516;2022-07-19T00:52:50;2.65;;;1.50;;
35893;SDS011;21994;48.204;16.516;2022-07-19T00:55:19;1.77;;;1.30;;
35893;SDS011;21994;48.204;16.516;2022-07-19T00:57:47;4.97;;;1.27;;
35893;SDS011;21994;48.204;16.516;2022-07-19T01:00:15;2.55;;;1.35;;
35893;SDS011;21994;48.204;16.516;2022-07-19T01:02:43;4.57;;;1.08;;
35893;SDS011;21994;48.204;16.516;2022-07-19T01:05:11;4.22;;;1.40;;
35893;SDS011;21994;48.204;16.516;2022-07-19T01:07:39;3.78;;;1.60;;
35893;SDS011;21994;48.204;16.516;2022-07-19T01:10:06;2.40;;;1.40;;
35893;SDS011;21994;48.204;16.516;2022-07-19T01:12:35;5.57;;;1.50;;
35893;SDS011;21994;48.204;16.516;2022-07-19T01:15:12;4.35;;;1.75;;
35893;SDS011;21994;48.204;16.516;2022-07-19T01:17:46;3.72;;;1.35;;
35893;SDS011;21994;48.204;16.516;2022-07-19T01:20:13;3.50;;;1.73;;
35893;SDS011;21994;48.204;16.516;2022-07-19T01:22:41;3.63;;;1.35;;
35893;SDS011;21994;48.204;16.516;2022-07-19T01:25:11;3.47;;;1.50;;
35893;SDS011;21994;48.204;16.516;2022-07-19T01:27:39;3.63;;;1.70;;
35893;SDS011;21994;48.204;16.516;2022-07-19T01:30:14;3.78;;;1.83;;
35893;SDS011;21994;48.204;16.516;2022-07-19T01:32:50;4.68;;;2.17;;
35893;SDS011;21994;48.204;16.516;2022-07-19T01:35:18;2.25;;;1.20;;
35893;SDS011;21994;48.204;16.516;2022-07-19T01:37:44;3.28;;;1.23;;
35893;SDS011;21994;48.204;16.516;2022-07-19T01:40:12;2.55;;;1.33;;
35893;SDS011;21994;48.204;16.516;2022-07-19T01:42:40;2.75;;;1.38;;
35893;SDS011;21994;48.204;16.516;2022-07-19T01:45:07;3.03;;;1.42;;
35893;SDS011;21994;48.204;16.516;2022-07-19T01:47:34;2.25;;;1.35;;
35893;SDS011;21994;48.204;16.516;2022-07-19T01:50:03;3.83;;;1.45;;
35893;SDS011;21994;48.204;16.516;2022-07-19T01:52:31;4.40;;;1.70;;
35893;SDS011;21994;48.204;16.516;2022-07-19T01:54:57;4.40;;;1.73;;
35893;SDS011;21994;48.204;16.516;2022-07-19T01:57:23;3.75;;;1.40;;
35893;SDS011;21994;48.204;16.516;2022-07-19T01:59:49;3.90;;;1.88;;
35893;SDS011;21994;48.204;16.516;2022-07-19T02:02:15;4.57;;;1.52;;
35893;SDS011;21994;48.204;16.516;2022-07-19T02:04:41;2.35;;;1.42;;
35893;SDS011;21994;48.204;16.516;2022-07-19T02:07:09;3.95;;;1.80;;
35893;SDS011;21994;48.204;16.516;2022-07-19T02:09:35;1.98;;;1.60;;
35893;SDS011;21994;48.204;16.516;2022-07-19T02:12:01;2.80;;;1.58;;
35893;SDS011;21994;48.204;16.516;2022-07-19T02:14:27;3.08;;;2.05;;
35893;SDS011;21994;48.204;16.516;2022-07-19T02:16:53;7.28;;;1.90;;
35893;SDS011;21994;48.204;16.516;2022-07-19T02:19:19;3.03;;;1.42;;
35893;SDS011;21994;48.204;16.516;2022-07-19T02:21:47;2.78;;;1.90;;
35893;SDS011;21994;48.204;16.516;2022-07-19T02:24:13;2.55;;;1.50;;
35893;SDS011;21994;48.204;16.516;2022-07-19T02:26:39;2.67;;;1.35;;
35893;SDS011;21994;48.204;16.516;2022-07-19T02:29:06;3.58;;;1.60;;
35893;SDS011;21994;48.204;16.516;2022-07-19T02:31:33;2.13;;;1.75;;
35893;SDS011;21994;48.204;16.516;2022-07-19T02:33:59;5.22;;;1.60;;
35893;SDS011;21994;48.204;16.516;2022-07-19T02:36:25;7.88;;;2.42;;
35893;SDS011;21994;48.204;16.516;2022-07-19T02:38:51;3.20;;;1.73;;
35893;SDS011;21994;48.204;16.516;2022-07-19T02:41:17;4.50;;;1.70;;
35893;SDS011;21994;48.204;16.516;2022-07-19T02:43:43;3.97;;;2.10;;
35893;SDS011;21994;48.204;16.516;2022-07-19T02:46:09;7.05;;;2.08;;
35893;SDS011;21994;48.204;16.516;2022-07-19T02:48:36;6.32;;;1.80;;
35893;SDS011;21994;48.204;16.516;2022-07-19T02:51:08;3.97;;;2.30;;
35893;SDS011;21994;48.204;16.516;2022-07-19T02:53:36;2.70;;;1.58;;
35893;SDS011;21994;48.204;16.516;2022-07-19T02:56:03;5.18;;;1.92;;
35893;SDS011;21994;48.204;16.516;2022-07-19T02:58:29;5.70;;;1.63;;
35893;SDS011;21994;48.204;16.516;2022-07-19T03:00:55;5.15;;;1.92;;
35893;SDS011;21994;48.204;16.516;2022-07-19T03:03:22;4.18;;;2.00;;
35893;SDS011;21994;48.204;16.516;2022-07-19T03:06:07;4.00;;;1.92;;
35893;SDS011;21994;48.204;16.516;2022-07-19T03:08:35;3.50;;;1.70;;
35893;SDS011;21994;48.204;16.516;2022-07-19T03:11:02;5.05;;;2.63;;
35893;SDS011;21994;48.204;16.516;2022-07-19T03:13:29;3.90;;;1.77;;
35893;SDS011;21994;48.204;16.516;2022-07-19T03:15:56;3.85;;;2.08;;
35893;SDS011;21994;48.204;16.516;2022-07-19T03:18:22;4.68;;;1.75;;
35893;SDS011;21994;48.204;16.516;2022-07-19T03:20:47;4.28;;;1.98;;
35893;SDS011;21994;48.204;16.516;2022-07-19T03:23:13;5.13;;;1.98;;
35893;SDS011;21994;48.204;16.516;2022-07-19T03:25:39;5.78;;;2.20;;
35893;SDS011;21994;48.204;16.516;2022-07-19T03:28:12;4.53;;;1.88;;
35893;SDS011;21994;48.204;16.516;2022-07-19T03:30:38;7.38;;;2.67;;
35893;SDS011;21994;48.204;16.516;2022-07-19T03:33:04;2.78;;;1.75;;
35893;SDS011;21994;48.204;16.516;2022-07-19T03:35:30;2.92;;;2.03;;
35893;SDS011;21994;48.204;16.516;2022-07-19T03:37:56;4.28;;;2.13;;
35893;SDS011;21994;48.204;16.516;2022-07-19T03:40:22;7.45;;;2.83;;
35893;SDS011;21994;48.204;16.516;2022-07-19T03:42:48;5.57;;;1.88;;
35893;SDS011;21994;48.204;16.516;2022-07-19T03:45:14;3.78;;;2.40;;
35893;SDS011;21994;48.204;16.516;2022-07-19T03:47:40;4.88;;;2.65;;
35893;SDS011;21994;48.204;16.516;2022-07-19T03:50:06;5.38;;;2.33;;
35893;SDS011;21994;48.204;16.516;2022-07-19T03:52:32;3.42;;;2.17;;
35893;SDS011;21994;48.204;16.516;2022-07-19T03:55:00;3.38;;;2.20;;
35893;SDS011;21994;48.204;16.516;2022-07-19T03:57:27;3.58;;;1.63;;
35893;SDS011;21994;48.204;16.516;2022-07-19T03:59:53;3.47;;;1.92;;
35893;SDS011;21994;48.204;16.516;2022-07-19T04:02:19;4.93;;;2.10;;
35893;SDS011;21994;48.204;16.516;2022-07-19T04:04:46;4.93;;;2.40;;
35893;SDS011;21994;48.204;16.516;2022-07-19T04:07:12;4.65;;;2.28;;
35893;SDS011;21994;48.204;16.516;2022-07-19T04:09:38;7.30;;;2.17;;
35893;SDS011;21994;48.204;16.516;2022-07-19T04:12:04;3.22;;;2.42;;
35893;SDS011;21994;48.204;16.516;2022-07-19T04:14:30;4.20;;;2.13;;
35893;SDS011;21994;48.204;16.516;2022-07-19T04:17:03;3.63;;;1.98;;
35893;SDS011;21994;48.204;16.516;2022-07-19T04:19:30;2.92;;;1.90;;
35893;SDS011;21994;48.204;16.516;2022-07-19T04:21:57;4.22;;;2.13;;
35893;SDS011;21994;48.204;16.516;2022-07-19T04:24:23;5.10;;;2.10;;
35893;SDS011;21994;48.204;16.516;2022-07-19T04:26:51;5.00;;;2.35;;
35893;SDS011;21994;48.204;16.516;2022-07-19T04:29:22;4.43;;;2.70;;
35893;SDS011;21994;48.204;16.516;2022-07-19T04:31:48;4.55;;;1.88;;
35893;SDS011;21994;48.204;16.516;2022-07-19T04:34:14;4.63;;;2.60;;
35893;SDS011;21994;48.204;16.516;2022-07-19T04:36:43;5.53;;;2.50;;
35893;SDS011;21994;48.204;16.516;2022-07-19T04:39:09;5.95;;;2.92;;
35893;SDS011;21994;48.204;16.516;2022-07-19T04:41:35;5.80;;;3.13;;
35893;SDS011;21994;48.204;16.516;2022-07-19T04:44:03;9.05;;;3.67;;
35893;SDS011;21994;48.204;16.516;2022-07-19T04:46:29;9.23;;;3.15;;
35893;SDS011;21994;48.204;16.516;2022-07-19T04:48:55;5.30;;;2.70;;
35893;SDS011;21994;48.204;16.516;2022-07-19T04:51:21;5.40;;;3.08;;
35893;SDS011;21994;48.204;16.516;2022-07-19T04:53:47;6.63;;;2.95;;
35893;SDS011;21994;48.204;16.516;2022-07-19T04:56:13;4.32;;;2.40;;
35893;SDS011;21994;48.204;16.516;2022-07-19T04:58:39;4.18;;;2.33;;
35893;SDS011;21994;48.204;16.516;2022-07-19T05:01:05;3.60;;;2.03;;
35893;SDS011;21994;48.204;16.516;2022-07-19T05:03:31;3.15;;;2.40;;
35893;SDS011;21994;48.204;16.516;2022-07-19T05:05:57;4.85;;;2.50;;
35893;SDS011;21994;48.204;16.516;2022-07-19T05:08:23;3.67;;;1.98;;
35893;SDS011;21994;48.204;16.516;2022-07-19T05:10:49;5.60;;;2.50;;
35893;SDS011;21994;48.204;16.516;2022-07-19T05:13:15;5.57;;;3.35;;
35893;SDS011;21994;48.204;16.516;2022-07-19T05:15:41;10.30;;;6.18;;
35893;SDS011;21994;48.204;16.516;2022-07-19T05:18:07;9.27;;;4.57;;
35893;SDS011;21994;48.204;16.516;2022-07-19T05:20:32;4.50;;;2.60;;
35893;SDS011;21994;48.204;16.516;2022-07-19T05:22:59;6.95;;;2.45;;
35893;SDS011;21994;48.204;16.516;2022-07-19T05:25:25;6.43;;;2.38;;
35893;SDS011;21994;48.204;16.516;2022-07-19T05:27:51;6.35;;;2.38;;
35893;SDS011;21994;48.204;16.516;2022-07-19T05:30:17;2.97;;;1.67;;
35893;SDS011;21994;48.204;16.516;2022-07-19T05:32:43;4.03;;;2.33;;
35893;SDS011;21994;48.204;16.516;2022-07-19T05:35:09;6.03;;;2.28;;
35893;SDS011;21994;48.204;16.516;2022-07-19T05:37:35;6.38;;;2.42;;
35893;SDS011;21994;48.204;16.516;2022-07-19T05:40:07;5.18;;;2.40;;
35893;SDS011;21994;48.204;16.516;2022-07-19T05:48:17;8.43;;;2.97;;
35893;SDS011;21994;48.204;16.516;2022-07-19T05:50:46;6.05;;;2.65;;
35893;SDS011;21994;48.204;16.516;2022-07-19T05:53:12;6.82;;;2.20;;
35893;SDS011;21994;48.204;16.516;2022-07-19T05:55:38;7.32;;;2.40;;
35893;SDS011;21994;48.204;16.516;2022-07-19T05:58:04;2.53;;;1.70;;
35893;SDS011;21994;48.204;16.516;2022-07-19T06:00:42;2.97;;;2.17;;
35893;SDS011;21994;48.204;16.516;2022-07-19T06:03:31;6.18;;;2.53;;
35893;SDS011;21994;48.204;16.516;2022-07-19T06:06:01;2.92;;;2.17;;
35893;SDS011;21994;48.204;16.516;2022-07-19T06:08:32;4.72;;;2.20;;
35893;SDS011;21994;48.204;16.516;2022-07-19T06:13:29;4.80;;;2.08;;
35893;SDS011;21994;48.204;16.516;2022-07-19T06:22:06;5.68;;;2.45;;
35893;SDS011;21994;48.204;16.516;2022-07-19T06:24:32;7.35;;;1.90;;
35893;SDS011;21994;48.204;16.516;2022-07-19T06:26:58;5.57;;;2.30;;
35893;SDS011;21994;48.204;16.516;2022-07-19T06:29:24;5.53;;;2.13;;
35893;SDS011;21994;48.204;16.516;2022-07-19T06:31:50;9.90;;;2.47;;
35893;SDS011;21994;48.204;16.516;2022-07-19T06:34:16;5.05;;;3.42;;
35893;SDS011;21994;48.204;16.516;2022-07-19T06:36:42;5.88;;;2.58;;
35893;SDS011;21994;48.204;16.516;2022-07-19T06:39:08;4.15;;;2.28;;
35893;SDS011;21994;48.204;16.516;2022-07-19T06:41:37;6.28;;;2.30;;
35893;SDS011;21994;48.204;16.516;2022-07-19T06:44:03;3.92;;;2.03;;
35893;SDS011;21994;48.204;16.516;2022-07-19T06:46:29;8.65;;;2.97;;
35893;SDS011;21994;48.204;16.516;2022-07-19T06:48:55;4.50;;;2.90;;
35893;SDS011;21994;48.204;16.516;2022-07-19T06:51:21;4.20;;;2.08;;
35893;SDS011;21994;48.204;16.516;2022-07-19T06:53:48;5.13;;;2.72;;
35893;SDS011;21994;48.204;16.516;2022-07-19T06:56:14;3.63;;;2.58;;
35893;SDS011;21994;48.204;16.516;2022-07-19T06:58:40;5.55;;;2.75;;
35893;SDS011;21994;48.204;16.516;2022-07-19T07:01:06;6.93;;;2.20;;
35893;SDS011;21994;48.204;16.516;2022-07-19T07:03:33;4.38;;;2.50;;
35893;SDS011;21994;48.204;16.516;2022-07-19T07:06:01;4.80;;;2.00;;
35893;SDS011;21994;48.204;16.516;2022-07-19T07:08:27;3.25;;;1.95;;
35893;SDS011;21994;48.204;16.516;2022-07-19T07:10:53;6.72;;;2.30;;
35893;SDS011;21994;48.204;16.516;2022-07-19T07:13:19;4.57;;;2.45;;
35893;SDS011;21994;48.204;16.516;2022-07-19T07:15:45;5.88;;;2.42;;
35893;SDS011;21994;48.204;16.516;2022-07-19T07:18:11;7.60;;;3.13;;
35893;SDS011;21994;48.204;16.516;2022-07-19T07:20:37;4.95;;;2.65;;
35893;SDS011;21994;48.204;16.516;2022-07-19T07:23:03;2.80;;;1.95;;
35893;SDS011;21994;48.204;16.516;2022-07-19T07:25:29;5.90;;;2.15;;
35893;SDS011;21994;48.204;16.516;2022-07-19T07:27:55;4.53;;;2.22;;
35893;SDS011;21994;48.204;16.516;2022-07-19T07:30:21;4.22;;;2.03;;
35893;SDS011;21994;48.204;16.516;2022-07-19T07:32:47;2.65;;;1.83;;
35893;SDS011;21994;48.204;16.516;2022-07-19T07:35:13;5.40;;;2.30;;
35893;SDS011;21994;48.204;16.516;2022-07-19T07:37:39;5.45;;;2.38;;
35893;SDS011;21994;48.204;16.516;2022-07-19T07:40:06;3.03;;;1.88;;
35893;SDS011;21994;48.204;16.516;2022-07-19T07:42:32;8.50;;;2.08;;
35893;SDS011;21994;48.204;16.516;2022-07-19T07:44:59;3.08;;;1.60;;
35893;SDS011;21994;48.204;16.516;2022-07-19T07:47:25;3.65;;;2.00;;
35893;SDS011;21994;48.204;16.516;2022-07-19T07:49:51;6.82;;;1.98;;
35893;SDS011;21994;48.204;16.516;2022-07-19T07:52:17;6.55;;;2.10;;
35893;SDS011;21994;48.204;16.516;2022-07-19T07:54:43;2.92;;;1.85;;
35893;SDS011;21994;48.204;16.516;2022-07-19T07:57:09;3.05;;;1.73;;
35893;SDS011;21994;48.204;16.516;2022-07-19T07:59:38;5.15;;;1.45;;
35893;SDS011;21994;48.204;16.516;2022-07-19T08:02:07;2.75;;;1.35;;
35893;SDS011;21994;48.204;16.516;2022-07-19T08:04:33;3.65;;;1.58;;
35893;SDS011;21994;48.204;16.516;2022-07-19T08:06:59;2.97;;;1.38;;
35893;SDS011;21994;48.204;16.516;2022-07-19T08:09:31;2.20;;;1.45;;
35893;SDS011;21994;48.204;16.516;2022-07-19T08:11:57;1.95;;;1.40;;
35893;SDS011;21994;48.204;16.516;2022-07-19T08:14:23;4.32;;;1.98;;
35893;SDS011;21994;48.204;16.516;2022-07-19T08:16:49;4.38;;;1.50;;
35893;SDS011;21994;48.204;16.516;2022-07-19T08:19:31;2.05;;;1.40;;
35893;SDS011;21994;48.204;16.516;2022-07-19T08:21:57;4.40;;;1.60;;
35893;SDS011;21994;48.204;16.516;2022-07-19T08:24:23;4.65;;;1.48;;
35893;SDS011;21994;48.204;16.516;2022-07-19T08:26:49;2.95;;;1.80;;
35893;SDS011;21994;48.204;16.516;2022-07-19T08:29:15;11.48;;;1.90;;
35893;SDS011;21994;48.204;16.516;2022-07-19T08:31:42;2.80;;;1.30;;
35893;SDS011;21994;48.204;16.516;2022-07-19T08:34:08;3.35;;;1.73;;
35893;SDS011;21994;48.204;16.516;2022-07-19T08:36:34;2.78;;;1.25;;
35893;SDS011;21994;48.204;16.516;2022-07-19T08:39:01;5.25;;;1.38;;
35893;SDS011;21994;48.204;16.516;2022-07-19T08:41:27;2.72;;;1.73;;
35893;SDS011;21994;48.204;16.516;2022-07-19T08:43:53;7.35;;;2.03;;
35893;SDS011;21994;48.204;16.516;2022-07-19T08:46:20;2.35;;;1.33;;
35893;SDS011;21994;48.204;16.516;2022-07-19T08:48:47;3.40;;;1.33;;
35893;SDS011;21994;48.204;16.516;2022-07-19T08:51:20;1.92;;;1.20;;
35893;SDS011;21994;48.204;16.516;2022-07-19T08:53:54;3.03;;;2.10;;
35893;SDS011;21994;48.204;16.516;2022-07-19T08:56:21;3.03;;;1.42;;
35893;SDS011;21994;48.204;16.516;2022-07-19T08:59:06;3.45;;;1.33;;
35893;SDS011;21994;48.204;16.516;2022-07-19T09:04:13;3.75;;;1.30;;
35893;SDS011;21994;48.204;16.516;2022-07-19T09:06:49;3.25;;;1.45;;
35893;SDS011;21994;48.204;16.516;2022-07-19T09:09:30;3.72;;;1.30;;
35893;SDS011;21994;48.204;16.516;2022-07-19T09:12:00;6.93;;;1.42;;
35893;SDS011;21994;48.204;16.516;2022-07-19T09:14:28;2.05;;;1.60;;
35893;SDS011;21994;48.204;16.516;2022-07-19T09:19:35;2.80;;;1.40;;
35893;SDS011;21994;48.204;16.516;2022-07-19T09:22:04;4.68;;;1.70;;
35893;SDS011;21994;48.204;16.516;2022-07-19T09:24:36;3.67;;;1.48;;
35893;SDS011;21994;48.204;16.516;2022-07-19T09:27:14;2.80;;;1.30;;
35893;SDS011;21994;48.204;16.516;2022-07-19T09:29:48;5.63;;;1.40;;
35893;SDS011;21994;48.204;16.516;2022-07-19T09:32:20;5.72;;;1.38;;
35893;SDS011;21994;48.204;16.516;2022-07-19T09:34:57;2.05;;;1.30;;
35893;SDS011;21994;48.204;16.516;2022-07-19T09:37:32;2.53;;;1.23;;
35893;SDS011;21994;48.204;16.516;2022-07-19T09:40:07;1.75;;;1.02;;
35893;SDS011;21994;48.204;16.516;2022-07-19T09:42:35;5.55;;;1.40;;
35893;SDS011;21994;48.204;16.516;2022-07-19T09:45:10;2.20;;;1.30;;
35893;SDS011;21994;48.204;16.516;2022-07-19T09:47:44;2.53;;;1.25;;
35893;SDS011;21994;48.204;16.516;2022-07-19T09:50:13;5.13;;;1.35;;
35893;SDS011;21994;48.204;16.516;2022-07-19T09:52:43;1.85;;;1.10;;
35893;SDS011;21994;48.204;16.516;2022-07-19T09:55:11;1.40;;;1.20;;
35893;SDS011;21994;48.204;16.516;2022-07-19T09:57:42;4.18;;;1.67;;
35893;SDS011;21994;48.204;16.516;2022-07-19T10:00:14;4.03;;;1.25;;
35893;SDS011;21994;48.204;16.516;2022-07-19T10:02:50;5.50;;;1.30;;
35893;SDS011;21994;48.204;16.516;2022-07-19T10:05:19;2.35;;;1.08;;
35893;SDS011;21994;48.204;16.516;2022-07-19T10:07:51;4.35;;;1.00;;
35893;SDS011;21994;48.204;16.516;2022-07-19T10:10:18;2.50;;;1.08;;
35893;SDS011;21994;48.204;16.516;2022-07-19T10:12:47;3.25;;;1.20;;
35893;SDS011;21994;48.204;16.516;2022-07-19T10:15:18;2.15;;;1.10;;
35893;SDS011;21994;48.204;16.516;2022-07-19T10:20:36;1.50;;;1.10;;
35893;SDS011;21994;48.204;16.516;2022-07-19T10:23:03;3.22;;;1.00;;
35893;SDS011;21994;48.204;16.516;2022-07-19T10:25:46;3.85;;;1.27;;
35893;SDS011;21994;48.204;16.516;2022-07-19T10:31:00;3.33;;;1.10;;
35893;SDS011;21994;48.204;16.516;2022-07-19T10:33:30;3.72;;;1.25;;
35893;SDS011;21994;48.204;16.516;2022-07-19T10:39:19;1.80;;;1.00;;
35893;SDS011;21994;48.204;16.516;2022-07-19T10:47:21;2.92;;;1.33;;
35893;SDS011;21994;48.204;16.516;2022-07-19T10:50:06;1.85;;;0.98;;
35893;SDS011;21994;48.204;16.516;2022-07-19T10:52:40;3.53;;;1.25;;
35893;SDS011;21994;48.204;16.516;2022-07-19T11:00:27;1.60;;;1.13;;
35893;SDS011;21994;48.204;16.516;2022-07-19T11:05:51;4.75;;;1.58;;
35893;SDS011;21994;48.204;16.516;2022-07-19T11:13:37;3.45;;;1.67;;
35893;SDS011;21994;48.204;16.516;2022-07-19T11:16:05;2.30;;;1.35;;
35893;SDS011;21994;48.204;16.516;2022-07-19T11:18:31;1.65;;;0.95;;
35893;SDS011;21994;48.204;16.516;2022-07-19T11:20:58;4.35;;;1.23;;
35893;SDS011;21994;48.204;16.516;2022-07-19T11:23:30;3.70;;;1.30;;
35893;SDS011;21994;48.204;16.516;2022-07-19T11:26:18;4.78;;;1.00;;
35893;SDS011;21994;48.204;16.516;2022-07-19T11:28:46;6.05;;;1.10;;
35893;SDS011;21994;48.204;16.516;2022-07-19T11:31:14;3.35;;;1.13;;
35893;SDS011;21994;48.204;16.516;2022-07-19T11:33:46;2.33;;;0.90;;
35893;SDS011;21994;48.204;16.516;2022-07-19T11:36:15;1.98;;;1.08;;
35893;SDS011;21994;48.204;16.516;2022-07-19T11:41:22;1.33;;;0.85;;
35893;SDS011;21994;48.204;16.516;2022-07-19T11:43:54;2.90;;;1.00;;
35893;SDS011;21994;48.204;16.516;2022-07-19T11:46:27;0.95;;;0.80;;
35893;SDS011;21994;48.204;16.516;2022-07-19T11:49:06;2.53;;;0.93;;
35893;SDS011;21994;48.204;16.516;2022-07-19T11:51:34;2.55;;;1.10;;
35893;SDS011;21994;48.204;16.516;2022-07-19T11:54:00;2.08;;;1.15;;
35893;SDS011;21994;48.204;16.516;2022-07-19T11:56:32;2.75;;;0.82;;
35893;SDS011;21994;48.204;16.516;2022-07-19T11:59:01;1.42;;;1.00;;
35893;SDS011;21994;48.204;16.516;2022-07-19T12:01:37;1.25;;;1.15;;
35893;SDS011;21994;48.204;16.516;2022-07-19T12:04:06;2.75;;;1.15;;
35893;SDS011;21994;48.204;16.516;2022-07-19T12:06:38;2.22;;;1.20;;
35893;SDS011;21994;48.204;16.516;2022-07-19T12:09:09;3.75;;;0.90;;
35893;SDS011;21994;48.204;16.516;2022-07-19T12:11:51;1.38;;;1.00;;
35893;SDS011;21994;48.204;16.516;2022-07-19T12:14:20;1.42;;;0.75;;
35893;SDS011;21994;48.204;16.516;2022-07-19T12:19:44;2.85;;;1.00;;
35893;SDS011;21994;48.204;16.516;2022-07-19T12:22:29;1.38;;;0.75;;
35893;SDS011;21994;48.204;16.516;2022-07-19T12:24:59;2.80;;;0.88;;
35893;SDS011;21994;48.204;16.516;2022-07-19T12:27:25;1.88;;;1.10;;
35893;SDS011;21994;48.204;16.516;2022-07-19T12:29:53;1.83;;;0.90;;
35893;SDS011;21994;48.204;16.516;2022-07-19T12:34:57;1.10;;;1.00;;
35893;SDS011;21994;48.204;16.516;2022-07-19T12:39:56;1.38;;;1.25;;
35893;SDS011;21994;48.204;16.516;2022-07-19T12:42:22;1.02;;;0.93;;
35893;SDS011;21994;48.204;16.516;2022-07-19T12:44:48;2.03;;;1.00;;
35893;SDS011;21994;48.204;16.516;2022-07-19T12:47:14;2.42;;;0.88;;
35893;SDS011;21994;48.204;16.516;2022-07-19T12:49:42;1.55;;;0.93;;
35893;SDS011;21994;48.204;16.516;2022-07-19T12:52:11;2.97;;;1.20;;
35893;SDS011;21994;48.204;16.516;2022-07-19T12:54:37;2.30;;;0.95;;
35893;SDS011;21994;48.204;16.516;2022-07-19T12:57:03;3.28;;;1.30;;
35893;SDS011;21994;48.204;16.516;2022-07-19T12:59:29;1.15;;;0.80;;
35893;SDS011;21994;48.204;16.516;2022-07-19T13:02:08;4.28;;;1.10;;
35893;SDS011;21994;48.204;16.516;2022-07-19T13:04:38;1.77;;;1.10;;
35893;SDS011;21994;48.204;16.516;2022-07-19T13:07:06;3.63;;;1.17;;
35893;SDS011;21994;48.204;16.516;2022-07-19T13:09:34;1.40;;;0.77;;
35893;SDS011;21994;48.204;16.516;2022-07-19T13:12:02;1.10;;;1.00;;
35893;SDS011;21994;48.204;16.516;2022-07-19T13:14:32;1.50;;;0.80;;
35893;SDS011;21994;48.204;16.516;2022-07-19T13:16:59;2.00;;;0.88;;
35893;SDS011;21994;48.204;16.516;2022-07-19T13:19:26;2.78;;;1.20;;
35893;SDS011;21994;48.204;16.516;2022-07-19T13:21:52;3.33;;;1.13;;
35893;SDS011;21994;48.204;16.516;2022-07-19T13:24:20;3.17;;;1.05;;
35893;SDS011;21994;48.204;16.516;2022-07-19T13:26:47;3.40;;;1.13;;
35893;SDS011;21994;48.204;16.516;2022-07-19T13:29:13;3.15;;;0.90;;
35893;SDS011;21994;48.204;16.516;2022-07-19T13:31:39;2.40;;;1.02;;
35893;SDS011;21994;48.204;16.516;2022-07-19T13:34:05;2.08;;;0.93;;
35893;SDS011;21994;48.204;16.516;2022-07-19T13:36:31;2.67;;;1.10;;
35893;SDS011;21994;48.204;16.516;2022-07-19T13:38:57;1.95;;;0.77;;
35893;SDS011;21994;48.204;16.516;2022-07-19T13:41:23;5.20;;;1.00;;
35893;SDS011;21994;48.204;16.516;2022-07-19T13:43:49;3.38;;;1.27;;
35893;SDS011;21994;48.204;16.516;2022-07-19T13:46:22;3.15;;;1.17;;
35893;SDS011;21994;48.204;16.516;2022-07-19T13:51:14;3.42;;;1.20;;
35893;SDS011;21994;48.204;16.516;2022-07-19T13:53:40;3.42;;;1.30;;
35893;SDS011;21994;48.204;16.516;2022-07-19T13:56:06;1.67;;;1.10;;
35893;SDS011;21994;48.204;16.516;2022-07-19T13:58:33;3.25;;;1.13;;
35893;SDS011;21994;48.204;16.516;2022-07-19T14:00:59;4.10;;;1.10;;
35893;SDS011;21994;48.204;16.516;2022-07-19T14:03:30;6.22;;;1.65;;
35893;SDS011;21994;48.204;16.516;2022-07-19T14:05:56;3.00;;;1.00;;
35893;SDS011;21994;48.204;16.516;2022-07-19T14:08:25;1.92;;;1.00;;
35893;SDS011;21994;48.204;16.516;2022-07-19T14:10:51;2.40;;;1.10;;
35893;SDS011;21994;48.204;16.516;2022-07-19T14:13:17;4.25;;;1.02;;
35893;SDS011;21994;48.204;16.516;2022-07-19T14:15:44;7.20;;;1.92;;
35893;SDS011;21994;48.204;16.516;2022-07-19T14:18:16;1.80;;;1.10;;
35893;SDS011;21994;48.204;16.516;2022-07-19T14:20:42;3.17;;;1.00;;
35893;SDS011;21994;48.204;16.516;2022-07-19T14:23:09;4.70;;;1.58;;
35893;SDS011;21994;48.204;16.516;2022-07-19T14:25:36;5.30;;;1.10;;
35893;SDS011;21994;48.204;16.516;2022-07-19T14:28:03;4.55;;;1.08;;
35893;SDS011;21994;48.204;16.516;2022-07-19T14:30:30;2.17;;;0.90;;
35893;SDS011;21994;48.204;16.516;2022-07-19T14:33:00;6.50;;;1.85;;
35893;SDS011;21994;48.204;16.516;2022-07-19T14:35:26;4.40;;;1.10;;
35893;SDS011;21994;48.204;16.516;2022-07-19T14:37:52;5.47;;;1.02;;
35893;SDS011;21994;48.204;16.516;2022-07-19T14:40:19;2.83;;;1.30;;
35893;SDS011;21994;48.204;16.516;2022-07-19T14:42:46;2.22;;;1.05;;
35893;SDS011;21994;48.204;16.516;2022-07-19T14:45:12;3.40;;;1.00;;
35893;SDS011;21994;48.204;16.516;2022-07-19T14:47:38;2.17;;;0.98;;
35893;SDS011;21994;48.204;16.516;2022-07-19T14:50:05;3.42;;;1.23;;
35893;SDS011;21994;48.204;16.516;2022-07-19T14:52:33;3.47;;;1.25;;
35893;SDS011;21994;48.204;16.516;2022-07-19T14:55:00;1.17;;;1.00;;
35893;SDS011;21994;48.204;16.516;2022-07-19T14:57:26;5.38;;;1.30;;
35893;SDS011;21994;48.204;16.516;2022-07-19T14:59:53;2.45;;;1.10;;
35893;SDS011;21994;48.204;16.516;2022-07-19T15:02:19;1.65;;;0.90;;
35893;SDS011;21994;48.204;16.516;2022-07-19T15:04:45;4.18;;;1.98;;
35893;SDS011;21994;48.204;16.516;2022-07-19T15:07:12;3.15;;;1.15;;
35893;SDS011;21994;48.204;16.516;2022-07-19T15:09:39;4.50;;;1.10;;
35893;SDS011;21994;48.204;16.516;2022-07-19T15:12:05;4.00;;;1.25;;
35893;SDS011;21994;48.204;16.516;2022-07-19T15:14:31;3.75;;;0.90;;
35893;SDS011;21994;48.204;16.516;2022-07-19T15:16:58;3.08;;;1.00;;
35893;SDS011;21994;48.204;16.516;2022-07-19T15:19:27;3.20;;;1.02;;
35893;SDS011;21994;48.204;16.516;2022-07-19T15:21:54;4.28;;;1.17;;
35893;SDS011;21994;48.204;16.516;2022-07-19T15:24:20;3.55;;;1.00;;
35893;SDS011;21994;48.204;16.516;2022-07-19T15:26:53;5.60;;;1.25;;
35893;SDS011;21994;48.204;16.516;2022-07-19T15:29:20;4.10;;;1.25;;
35893;SDS011;21994;48.204;16.516;2022-07-19T15:31:48;1.58;;;1.45;;
35893;SDS011;21994;48.204;16.516;2022-07-19T15:34:17;3.42;;;1.27;;
35893;SDS011;21994;48.204;16.516;2022-07-19T15:36:43;1.10;;;0.93;;
35893;SDS011;21994;48.204;16.516;2022-07-19T15:39:15;1.67;;;1.35;;